Time;durP1;ratioP1;P1;durP2;ratioP2;P2;SDS_P1;SDS_P2;PMS_P1;PMS_P2;Temp;Humidity;BMP_temperature;BMP_pressure;BME280_temperature;BME280_humidity;BME280_pressure;Samples;Min_cycle;Max_cycle;Signal;HPM_P1;HPM_P2
2023/07/01 00:01:24;;;;;;;9.73;2.38;;;18.40;99.90;;;;;;4966511;28;20045;-50
2023/07/01 00:03:50;;;;;;;11.98;2.08;;;18.40;99.90;;;;;;4957716;28;20198;-51
2023/07/01 00:06:15;;;;;;;6.72;2.20;;;18.40;99.90;;;;;;4966196;28;20526;-49
2023/07/01 00:08:41;;;;;;;11.20;2.20;;;18.40;99.90;;;;;;4934674;28;20410;-49
2023/07/01 00:11:07;;;;;;;7.57;2.42;;;18.40;99.90;;;;;;4952784;28;20042;-49
2023/07/01 00:13:34;;;;;;;6.10;2.28;;;18.40;99.90;;;;;;4952669;28;20035;-49
2023/07/01 00:15:59;;;;;;;7.20;2.05;;;18.40;99.90;;;;;;4952430;28;20039;-50
2023/07/01 00:18:26;;;;;;;6.78;2.45;;;18.40;99.90;;;;;;4952260;28;20491;-49
2023/07/01 00:20:53;;;;;;;7.13;2.20;;;18.40;99.90;;;;;;4952480;28;20574;-49
2023/07/01 00:23:19;;;;;;;9.30;2.25;;;18.40;99.90;;;;;;4951713;28;20043;-52
2023/07/01 00:25:44;;;;;;;10.23;2.63;;;18.40;99.90;;;;;;4952190;28;20043;-49
2023/07/01 00:28:10;;;;;;;7.18;2.20;;;18.40;99.90;;;;;;4952390;28;20115;-49
2023/07/01 00:30:36;;;;;;;11.80;2.33;;;18.30;99.90;;;;;;4952469;28;20051;-49
2023/07/01 00:33:04;;;;;;;6.78;2.28;;;18.30;99.90;;;;;;4952268;28;20427;-49
2023/07/01 00:35:29;;;;;;;13.13;3.08;;;18.30;99.90;;;;;;4952208;28;20122;-47
2023/07/01 00:37:55;;;;;;;11.75;2.92;;;18.30;99.90;;;;;;4951878;28;20453;-53
2023/07/01 00:40:21;;;;;;;7.18;2.05;;;18.30;99.90;;;;;;4953629;28;20099;-48
2023/07/01 00:42:47;;;;;;;8.43;2.70;;;18.30;99.90;;;;;;4938141;28;20039;-51
2023/07/01 00:45:13;;;;;;;8.40;2.47;;;18.30;99.90;;;;;;4956774;28;20070;-47
2023/07/01 00:47:42;;;;;;;7.03;2.30;;;18.30;99.90;;;;;;4955695;28;20097;-50
2023/07/01 00:50:13;;;;;;;8.45;2.90;;;18.30;99.90;;;;;;4957088;28;20700;-51
2023/07/01 00:52:39;;;;;;;8.73;2.83;;;18.20;99.90;;;;;;4953998;28;20130;-49
2023/07/01 00:55:07;;;;;;;7.90;2.58;;;18.30;99.90;;;;;;4954870;28;20043;-51
2023/07/01 00:57:33;;;;;;;6.25;2.67;;;18.20;99.90;;;;;;4938193;28;20046;-49
2023/07/01 01:00:00;;;;;;;6.40;2.30;;;18.20;99.90;;;;;;4955526;28;20074;-49
2023/07/01 01:02:32;;;;;;;7.45;2.55;;;18.20;99.90;;;;;;4956878;28;20047;-50
2023/07/01 01:05:10;;;;;;;8.25;2.40;;;18.20;99.90;;;;;;4974567;28;20106;-50
2023/07/01 01:08:29;;;;;;;10.10;2.55;;;18.20;99.90;;;;;;4974311;28;20062;-49
2023/07/01 01:10:58;;;;;;;6.90;2.33;;;18.20;99.90;;;;;;4950211;28;20057;-48
2023/07/01 01:13:26;;;;;;;8.90;2.90;;;18.10;99.90;;;;;;4974664;28;20038;-46
2023/07/01 01:15:52;;;;;;;9.80;2.30;;;18.20;99.90;;;;;;4974544;28;20390;-51
2023/07/01 01:18:22;;;;;;;7.68;2.72;;;18.10;99.90;;;;;;4974049;28;20075;-51
2023/07/01 01:20:50;;;;;;;7.60;2.58;;;18.20;99.90;;;;;;4974188;28;20395;-51
2023/07/01 01:23:27;;;;;;;7.65;2.50;;;18.20;99.90;;;;;;4974078;28;20050;-50
2023/07/01 01:26:05;;;;;;;8.13;2.80;;;18.10;99.90;;;;;;4937636;28;20102;-51
2023/07/01 01:28:33;;;;;;;10.63;2.90;;;18.10;99.90;;;;;;4954883;28;20043;-49
2023/07/01 01:30:59;;;;;;;9.27;2.95;;;18.10;99.90;;;;;;4954522;28;20050;-49
2023/07/01 01:33:25;;;;;;;8.90;3.00;;;18.20;99.90;;;;;;4954712;28;20122;-51
2023/07/01 01:35:53;;;;;;;8.95;2.70;;;18.20;99.90;;;;;;4937377;28;20043;-48
2023/07/01 01:38:23;;;;;;;10.10;2.90;;;18.20;99.90;;;;;;4954477;28;20031;-47
2023/07/01 01:40:57;;;;;;;11.07;3.10;;;18.20;99.90;;;;;;4954543;28;20085;-52
2023/07/01 01:43:47;;;;;;;7.05;2.75;;;18.20;99.90;;;;;;4937466;28;20082;-52
2023/07/01 01:46:15;;;;;;;9.73;3.05;;;18.20;99.90;;;;;;4954187;28;20043;-50
2023/07/01 01:48:41;;;;;;;8.00;3.28;;;18.20;99.90;;;;;;4954689;28;20098;-52
2023/07/01 01:51:08;;;;;;;7.68;3.20;;;18.10;99.90;;;;;;4953293;28;20566;-49
2023/07/01 01:53:37;;;;;;;9.50;3.30;;;18.10;99.90;;;;;;4961809;28;20061;-50
2023/07/01 01:56:03;;;;;;;8.55;3.33;;;18.10;99.90;;;;;;4973657;28;20042;-49
2023/07/01 01:58:29;;;;;;;7.13;2.95;;;18.10;99.90;;;;;;4973371;28;20105;-51
2023/07/01 02:00:55;;;;;;;6.57;2.90;;;18.10;99.90;;;;;;4973384;28;20051;-48
2023/07/01 02:03:21;;;;;;;8.05;3.08;;;18.10;99.90;;;;;;4973466;28;20039;-47
2023/07/01 02:05:46;;;;;;;9.38;3.13;;;18.10;99.90;;;;;;4966531;28;20035;-49
2023/07/01 02:08:12;;;;;;;7.97;3.35;;;18.10;99.90;;;;;;4954240;28;20042;-49
2023/07/01 02:10:38;;;;;;;10.43;3.60;;;18.10;99.90;;;;;;4936566;28;20054;-48
2023/07/01 02:13:05;;;;;;;6.70;3.17;;;18.10;99.90;;;;;;4961428;28;20034;-50
2023/07/01 02:15:31;;;;;;;7.60;3.08;;;18.10;99.90;;;;;;4973294;28;20042;-50
2023/07/01 02:17:57;;;;;;;8.63;3.05;;;18.00;99.90;;;;;;4973413;28;20046;-51
2023/07/01 02:20:23;;;;;;;10.15;3.42;;;18.00;99.90;;;;;;4973227;28;20486;-49
2023/07/01 02:22:49;;;;;;;9.50;3.10;;;17.90;99.90;;;;;;4973062;28;20049;-52
2023/07/01 02:25:15;;;;;;;8.73;3.13;;;17.90;99.90;;;;;;4965514;28;20051;-48
2023/07/01 02:27:41;;;;;;;8.38;3.00;;;17.90;99.90;;;;;;4952804;28;20068;-52
2023/07/01 02:30:07;;;;;;;6.78;3.10;;;17.90;99.90;;;;;;4952823;28;20043;-49
2023/07/01 02:32:33;;;;;;;7.07;2.92;;;17.80;99.90;;;;;;4953207;28;20043;-50
2023/07/01 02:34:59;;;;;;;10.05;3.40;;;17.80;99.90;;;;;;4952939;28;20047;-47
2023/07/01 02:37:24;;;;;;;8.98;3.65;;;17.70;99.90;;;;;;4953483;28;20524;-52
2023/07/01 02:39:50;;;;;;;9.77;3.38;;;17.60;99.90;;;;;;4953378;28;20042;-48
2023/07/01 02:42:19;;;;;;;7.00;2.92;;;17.50;99.90;;;;;;4953543;28;20042;-49
2023/07/01 02:44:46;;;;;;;9.00;3.20;;;17.50;99.90;;;;;;4936046;28;20053;-47
2023/07/01 02:47:12;;;;;;;6.82;2.83;;;17.50;99.90;;;;;;4953225;28;20062;-50
2023/07/01 02:49:40;;;;;;;10.32;2.88;;;17.40;99.90;;;;;;4936177;28;20047;-49
2023/07/01 02:52:08;;;;;;;6.93;3.10;;;17.50;99.90;;;;;;4952931;28;20051;-48
2023/07/01 02:54:35;;;;;;;7.20;3.08;;;17.50;99.90;;;;;;4953261;28;20066;-52
2023/07/01 02:57:01;;;;;;;8.23;2.60;;;17.50;99.90;;;;;;4953288;28;20067;-52
2023/07/01 02:59:27;;;;;;;6.50;2.50;;;17.50;99.90;;;;;;4953264;28;20031;-50
2023/07/01 03:01:53;;;;;;;10.00;2.72;;;17.50;99.90;;;;;;4952960;28;20395;-52
2023/07/01 03:04:18;;;;;;;7.40;2.60;;;17.50;99.90;;;;;;4952914;28;20042;-50
2023/07/01 03:06:44;;;;;;;6.97;2.70;;;17.60;99.90;;;;;;4953230;28;20074;-52
2023/07/01 03:09:10;;;;;;;7.00;2.60;;;17.60;99.90;;;;;;4953168;28;20391;-49
2023/07/01 03:11:36;;;;;;;12.13;3.00;;;17.60;99.90;;;;;;4952911;28;20066;-51
2023/07/01 03:14:02;;;;;;;6.05;2.40;;;17.60;99.90;;;;;;4935976;28;20031;-49
2023/07/01 03:16:31;;;;;;;6.95;2.70;;;17.50;99.90;;;;;;4953300;28;20047;-52
2023/07/01 03:18:58;;;;;;;9.00;2.97;;;17.50;99.90;;;;;;4958411;28;20477;-48
2023/07/01 03:21:25;;;;;;;7.68;2.72;;;17.50;99.90;;;;;;4953244;28;20038;-49
2023/07/01 03:23:51;;;;;;;6.40;3.00;;;17.50;99.90;;;;;;4952697;28;20039;-51
2023/07/01 03:26:17;;;;;;;6.32;3.35;;;17.50;99.90;;;;;;4952951;28;20128;-50
2023/07/01 03:28:43;;;;;;;8.15;3.28;;;17.40;99.90;;;;;;4952981;28;20039;-53
2023/07/01 03:31:09;;;;;;;7.43;3.08;;;17.40;99.90;;;;;;4952621;28;20085;-49
2023/07/01 03:33:35;;;;;;;11.40;3.88;;;17.40;99.90;;;;;;4935239;28;20075;-49
2023/07/01 03:36:01;;;;;;;5.35;3.15;;;17.30;99.90;;;;;;4953047;28;20057;-47
2023/07/01 03:38:27;;;;;;;10.75;3.75;;;17.20;99.90;;;;;;4952904;28;20047;-47
2023/07/01 03:40:52;;;;;;;8.75;3.90;;;17.10;99.90;;;;;;4952628;28;20565;-48
2023/07/01 03:43:18;;;;;;;5.60;3.83;;;17.10;99.90;;;;;;4952835;28;20047;-50
2023/07/01 03:45:44;;;;;;;7.28;3.90;;;17.00;99.90;;;;;;4952886;28;20074;-49
2023/07/01 03:48:09;;;;;;;10.00;4.05;;;16.90;99.90;;;;;;4952415;28;20067;-51
2023/07/01 03:50:35;;;;;;;7.25;3.80;;;16.90;99.90;;;;;;4951836;28;20079;-51
2023/07/01 03:53:01;;;;;;;9.57;4.13;;;16.90;99.90;;;;;;4952473;28;20058;-53
2023/07/01 03:55:26;;;;;;;9.70;3.80;;;16.90;99.90;;;;;;4953804;28;20039;-49
2023/07/01 03:57:52;;;;;;;7.03;3.92;;;16.90;99.90;;;;;;4971795;28;20038;-50
2023/07/01 04:00:18;;;;;;;7.85;3.78;;;16.90;99.90;;;;;;4972011;28;20034;-51
2023/07/01 04:02:49;;;;;;;7.60;3.33;;;17.00;99.90;;;;;;4971736;28;20474;-48
2023/07/01 04:05:16;;;;;;;7.20;3.50;;;16.90;99.90;;;;;;4971976;28;20479;-52
2023/07/01 04:07:43;;;;;;;7.47;3.65;;;17.00;99.90;;;;;;4971496;28;20030;-47
2023/07/01 04:10:10;;;;;;;9.00;3.55;;;16.90;99.90;;;;;;4971431;28;20078;-51
2023/07/01 04:12:37;;;;;;;7.40;3.30;;;16.90;99.90;;;;;;4935023;28;20118;-49
2023/07/01 04:15:09;;;;;;;8.52;4.00;;;16.90;99.90;;;;;;4953854;28;20467;-50
2023/07/01 04:17:42;;;;;;;8.85;3.65;;;17.00;99.90;;;;;;4956305;28;20039;-49
2023/07/01 04:20:09;;;;;;;9.35;3.60;;;17.00;99.90;;;;;;4958090;28;20117;-51
2023/07/01 04:22:35;;;;;;;8.90;4.10;;;16.90;99.90;;;;;;4975207;28;20046;-47
2023/07/01 04:25:01;;;;;;;8.52;4.50;;;16.90;99.90;;;;;;4974634;28;20118;-49
2023/07/01 04:27:27;;;;;;;8.57;4.28;;;16.90;99.90;;;;;;4964139;28;20039;-51
2023/07/01 04:29:53;;;;;;;11.95;4.05;;;16.80;99.90;;;;;;4939170;28;20513;-51
2023/07/01 04:32:18;;;;;;;7.60;4.03;;;16.80;99.90;;;;;;4955511;28;20114;-53
2023/07/01 04:34:44;;;;;;;8.32;4.28;;;16.70;99.90;;;;;;4955735;28;20114;-51
2023/07/01 04:37:10;;;;;;;10.73;4.65;;;16.70;99.90;;;;;;4955606;28;20035;-52
2023/07/01 04:39:35;;;;;;;10.35;4.72;;;16.70;99.90;;;;;;4955996;28;20031;-48
2023/07/01 04:42:02;;;;;;;8.00;3.85;;;16.70;99.90;;;;;;4955751;28;20645;-49
2023/07/01 04:44:28;;;;;;;7.93;3.65;;;16.80;99.90;;;;;;4954679;28;20066;-48
2023/07/01 04:46:54;;;;;;;7.80;4.07;;;16.70;99.90;;;;;;4955731;28;20154;-52
2023/07/01 04:49:19;;;;;;;9.13;4.30;;;16.80;99.90;;;;;;4955797;28;20411;-50
2023/07/01 04:51:45;;;;;;;9.60;4.28;;;16.80;99.90;;;;;;4955190;28;20502;-51
2023/07/01 04:54:11;;;;;;;8.90;4.10;;;16.80;99.90;;;;;;4954931;28;20522;-47
2023/07/01 04:56:37;;;;;;;9.43;4.20;;;16.80;99.90;;;;;;4955101;28;20501;-50
2023/07/01 04:59:02;;;;;;;8.73;4.15;;;16.80;99.90;;;;;;4955374;28;20042;-50
2023/07/01 05:01:28;;;;;;;7.28;3.75;;;16.80;99.90;;;;;;4955205;28;20151;-50
2023/07/01 05:03:54;;;;;;;8.23;4.30;;;16.90;99.90;;;;;;4937824;28;20138;-48
2023/07/01 05:06:19;;;;;;;10.02;4.40;;;16.90;99.90;;;;;;4955309;28;20043;-50
2023/07/01 05:08:45;;;;;;;9.18;3.85;;;17.00;99.90;;;;;;4955455;28;20082;-47
2023/07/01 05:11:11;;;;;;;7.35;3.83;;;17.00;99.90;;;;;;4955007;28;20039;-49
2023/07/01 05:13:37;;;;;;;9.40;4.38;;;17.00;99.90;;;;;;4938166;28;20051;-51
2023/07/01 05:16:03;;;;;;;6.20;4.25;;;17.00;99.90;;;;;;4961337;28;20482;-48
2023/07/01 05:18:28;;;;;;;7.15;3.72;;;17.10;99.90;;;;;;4974541;28;20512;-49
2023/07/01 05:20:54;;;;;;;8.52;4.00;;;17.10;99.90;;;;;;4974319;28;20039;-48
2023/07/01 05:23:20;;;;;;;6.45;3.83;;;17.10;99.90;;;;;;4938696;28;20380;-47
2023/07/01 05:25:45;;;;;;;7.55;4.05;;;17.20;99.90;;;;;;4954530;28;20043;-49
2023/07/01 05:28:11;;;;;;;8.73;4.20;;;17.20;99.90;;;;;;4954633;28;20039;-49
2023/07/01 05:30:37;;;;;;;6.95;4.05;;;17.20;99.90;;;;;;4970274;28;20035;-47
2023/07/01 05:33:03;;;;;;;7.40;3.97;;;17.20;99.90;;;;;;4962549;28;20125;-50
2023/07/01 05:35:28;;;;;;;7.45;4.00;;;17.20;99.90;;;;;;4954505;28;20081;-50
2023/07/01 05:37:54;;;;;;;7.07;4.00;;;17.30;99.90;;;;;;4954643;28;20484;-49
2023/07/01 05:40:20;;;;;;;8.75;4.22;;;17.20;99.90;;;;;;4954760;28;20047;-49
2023/07/01 05:42:46;;;;;;;10.15;4.50;;;17.30;99.90;;;;;;4954644;28;20517;-52
2023/07/01 05:45:12;;;;;;;7.28;4.90;;;17.20;99.90;;;;;;4954788;28;20388;-48
2023/07/01 05:47:38;;;;;;;6.90;4.80;;;17.20;99.90;;;;;;4936902;28;20082;-49
2023/07/01 05:50:05;;;;;;;8.13;4.70;;;17.10;99.90;;;;;;4954631;28;20118;-50
2023/07/01 05:52:31;;;;;;;9.73;4.82;;;17.10;99.90;;;;;;4936781;28;20094;-50
2023/07/01 05:54:56;;;;;;;7.05;5.32;;;17.10;99.90;;;;;;4954147;28;20067;-49
2023/07/01 05:57:22;;;;;;;7.32;5.13;;;17.00;99.90;;;;;;4954370;28;20517;-49
2023/07/01 05:59:48;;;;;;;8.60;5.28;;;17.00;99.90;;;;;;4954474;28;20062;-51
2023/07/01 06:02:14;;;;;;;9.10;5.72;;;17.00;99.90;;;;;;4953735;28;20047;-49
2023/07/01 06:04:39;;;;;;;9.65;5.65;;;17.00;99.90;;;;;;4954475;28;20046;-52
2023/07/01 06:07:05;;;;;;;8.57;6.20;;;17.00;99.90;;;;;;4954139;28;20043;-49
2023/07/01 06:09:31;;;;;;;9.82;5.88;;;17.00;99.90;;;;;;4953920;28;20035;-52
2023/07/01 06:11:56;;;;;;;7.10;5.78;;;16.90;99.90;;;;;;4953905;28;20050;-50
2023/07/01 06:14:22;;;;;;;9.45;6.65;;;16.90;99.90;;;;;;4953973;28;20046;-49
2023/07/01 06:16:47;;;;;;;11.40;6.60;;;16.90;99.90;;;;;;4953677;28;20043;-49
2023/07/01 06:19:13;;;;;;;7.07;6.32;;;16.90;99.90;;;;;;4936855;28;20087;-49
2023/07/01 06:21:39;;;;;;;12.57;7.28;;;16.80;99.90;;;;;;4953646;28;20094;-51
2023/07/01 06:24:05;;;;;;;12.45;7.20;;;16.90;99.90;;;;;;4953792;28;20066;-47
2023/07/01 06:26:30;;;;;;;10.40;7.35;;;16.80;99.90;;;;;;4953844;28;20507;-49
2023/07/01 06:28:56;;;;;;;10.25;7.30;;;16.90;99.90;;;;;;4967962;28;20119;-51
2023/07/01 06:31:22;;;;;;;8.23;6.97;;;16.70;99.90;;;;;;4952894;28;20452;-49
2023/07/01 06:33:48;;;;;;;10.60;8.15;;;16.80;99.90;;;;;;4951597;28;20035;-51
2023/07/01 06:36:17;;;;;;;11.18;8.50;;;16.80;99.90;;;;;;4953001;28;20042;-50
2023/07/01 06:38:43;;;;;;;9.20;7.20;;;16.80;99.90;;;;;;4950757;28;20054;-50
2023/07/01 06:41:09;;;;;;;9.68;8.27;;;16.80;99.90;;;;;;4952938;28;20505;-48
2023/07/01 06:43:41;;;;;;;9.07;8.15;;;16.80;99.90;;;;;;4951264;28;20039;-50
2023/07/01 06:46:07;;;;;;;9.15;8.15;;;17.00;99.90;;;;;;4950559;28;20435;-52
2023/07/01 06:48:33;;;;;;;11.15;9.00;;;17.00;99.90;;;;;;4919537;28;20043;-49
2023/07/01 06:50:59;;;;;;;12.10;9.73;;;17.00;99.90;;;;;;4953427;28;20452;-49
2023/07/01 06:53:25;;;;;;;11.38;9.40;;;17.00;99.90;;;;;;4951433;28;20200;-50
2023/07/01 06:55:50;;;;;;;11.07;9.80;;;16.90;99.90;;;;;;4931774;28;20098;-52
2023/07/01 06:58:16;;;;;;;13.15;10.02;;;17.00;99.90;;;;;;4952671;28;20260;-48
2023/07/01 07:00:43;;;;;;;12.43;10.32;;;17.00;99.90;;;;;;4959890;28;20390;-50
2023/07/01 07:03:10;;;;;;;10.02;8.82;;;17.10;99.90;;;;;;4955637;28;20398;-48
2023/07/01 07:05:35;;;;;;;11.75;9.07;;;17.20;99.90;;;;;;4956134;28;20307;-46
2023/07/01 07:08:01;;;;;;;10.15;8.90;;;17.20;99.90;;;;;;4951799;28;20169;-48
2023/07/01 07:10:27;;;;;;;11.20;9.98;;;17.00;99.90;;;;;;4943291;28;20058;-50
2023/07/01 07:12:53;;;;;;;10.18;9.15;;;17.10;99.90;;;;;;4944862;28;20058;-52
2023/07/01 07:15:18;;;;;;;11.38;9.85;;;17.20;99.90;;;;;;4943335;28;20075;-49
2023/07/01 07:17:44;;;;;;;13.43;9.48;;;17.20;99.90;;;;;;4945449;28;20039;-47
2023/07/01 07:20:10;;;;;;;11.48;10.27;;;17.20;99.90;;;;;;4944114;28;20510;-49
2023/07/01 07:22:36;;;;;;;12.15;9.38;;;17.20;99.90;;;;;;4947152;28;20430;-49
2023/07/01 07:25:02;;;;;;;12.93;10.07;;;17.30;99.90;;;;;;4953140;28;20323;-50
2023/07/01 07:27:27;;;;;;;10.63;9.15;;;17.40;99.90;;;;;;4951913;28;20038;-47
2023/07/01 07:29:53;;;;;;;11.52;9.48;;;17.40;99.90;;;;;;4952117;28;20038;-51
2023/07/01 07:32:19;;;;;;;10.98;9.10;;;17.50;99.90;;;;;;4950857;28;20035;-49
2023/07/01 07:34:44;;;;;;;10.43;8.75;;;17.50;99.90;;;;;;4951999;28;20042;-47
2023/07/01 07:37:10;;;;;;;9.52;8.63;;;17.60;99.90;;;;;;4951575;28;20034;-52
2023/07/01 07:39:36;;;;;;;9.93;8.57;;;17.40;99.90;;;;;;4948400;28;21477;-49
2023/07/01 07:42:02;;;;;;;10.30;8.70;;;17.60;99.90;;;;;;4950948;28;20138;-50
2023/07/01 07:44:28;;;;;;;9.68;8.48;;;17.60;99.90;;;;;;4952614;28;20066;-49
2023/07/01 07:46:55;;;;;;;9.32;8.32;;;17.50;99.90;;;;;;4945853;28;20043;-50
2023/07/01 07:49:21;;;;;;;10.93;7.90;;;17.60;99.90;;;;;;4946855;28;20078;-50
2023/07/01 07:51:47;;;;;;;10.23;8.90;;;17.50;99.90;;;;;;4946982;28;20070;-48
2023/07/01 07:54:12;;;;;;;8.57;7.68;;;17.50;99.90;;;;;;4948029;28;20529;-50
2023/07/01 07:56:38;;;;;;;9.68;7.80;;;17.60;99.90;;;;;;4948485;28;20401;-47
2023/07/01 07:59:04;;;;;;;9.85;8.13;;;17.70;99.90;;;;;;4948274;28;20031;-49
2023/07/01 08:01:30;;;;;;;9.23;7.65;;;17.70;99.90;;;;;;4948808;28;20739;-49
2023/07/01 08:03:55;;;;;;;8.65;7.80;;;17.60;99.90;;;;;;4930930;28;20138;-48
2023/07/01 08:06:21;;;;;;;8.98;8.07;;;17.70;99.90;;;;;;4948789;28;20050;-49
2023/07/01 08:08:47;;;;;;;11.48;8.18;;;17.70;99.90;;;;;;4948300;28;20071;-50
2023/07/01 08:11:12;;;;;;;10.80;8.43;;;17.60;99.90;;;;;;4945640;28;20066;-50
2023/07/01 08:13:38;;;;;;;9.25;8.15;;;17.70;99.90;;;;;;4947898;28;20630;-48
2023/07/01 08:16:05;;;;;;;9.57;8.55;;;17.60;99.90;;;;;;4946501;28;20039;-48
2023/07/01 08:18:31;;;;;;;10.80;8.75;;;17.70;99.90;;;;;;4947660;28;23015;-49
2023/07/01 08:20:57;;;;;;;9.13;8.23;;;17.70;99.90;;;;;;4947773;28;20104;-51
2023/07/01 08:23:22;;;;;;;8.93;8.02;;;17.90;99.90;;;;;;4947158;28;20043;-48
2023/07/01 08:25:48;;;;;;;8.93;8.02;;;17.80;99.90;;;;;;4946370;28;20039;-48
2023/07/01 08:28:14;;;;;;;11.32;8.40;;;17.80;99.90;;;;;;4947050;28;20090;-49
2023/07/01 08:30:39;;;;;;;9.57;8.68;;;17.70;99.90;;;;;;4947030;28;20098;-51
2023/07/01 08:33:05;;;;;;;11.43;8.68;;;17.90;99.90;;;;;;4951403;28;20418;-52
2023/07/01 08:35:31;;;;;;;10.00;8.82;;;18.00;99.90;;;;;;4937179;28;20126;-52
2023/07/01 08:37:56;;;;;;;11.48;9.35;;;18.00;99.90;;;;;;4953208;28;20031;-47
2023/07/01 08:40:22;;;;;;;9.90;8.90;;;17.90;99.90;;;;;;4953292;28;20035;-49
2023/07/01 08:42:50;;;;;;;10.27;9.27;;;17.90;99.90;;;;;;4952947;28;20519;-46
2023/07/01 08:45:16;;;;;;;9.82;8.82;;;18.00;99.90;;;;;;4954036;28;20513;-48
2023/07/01 08:47:42;;;;;;;12.43;9.18;;;18.10;99.90;;;;;;4954636;28;20095;-50
2023/07/01 08:50:09;;;;;;;9.27;8.38;;;17.90;99.90;;;;;;4954990;28;20039;-50
2023/07/01 08:52:46;;;;;;;10.02;9.02;;;17.90;99.90;;;;;;4954492;28;20052;-50
2023/07/01 08:55:12;;;;;;;11.68;9.60;;;17.90;99.90;;;;;;4954152;28;20086;-48
2023/07/01 08:57:42;;;;;;;11.68;10.00;;;18.10;99.90;;;;;;4954497;28;20047;-51
2023/07/01 09:00:10;;;;;;;11.65;8.63;;;18.10;99.90;;;;;;4954345;28;20043;-50
2023/07/01 09:02:37;;;;;;;12.43;8.50;;;17.90;99.90;;;;;;4952522;28;20398;-48
2023/07/01 09:05:03;;;;;;;10.80;9.75;;;18.10;99.90;;;;;;4954117;28;20131;-51
2023/07/01 09:07:29;;;;;;;10.52;9.50;;;18.00;99.90;;;;;;4956414;28;20798;-51
2023/07/01 09:10:03;;;;;;;10.85;9.75;;;18.10;99.90;;;;;;4953812;28;20042;-51
2023/07/01 09:12:29;;;;;;;10.10;9.02;;;18.20;99.90;;;;;;4953646;28;20043;-47
2023/07/01 09:15:08;;;;;;;10.80;9.77;;;18.30;99.90;;;;;;4953651;28;20043;-49
2023/07/01 09:17:36;;;;;;;10.07;9.07;;;18.30;99.90;;;;;;4953273;28;20037;-48
2023/07/01 09:20:05;;;;;;;10.02;8.98;;;18.50;99.90;;;;;;4953977;28;20081;-52
2023/07/01 09:22:33;;;;;;;10.07;9.10;;;18.50;99.90;;;;;;4953597;28;20036;-50
2023/07/01 09:24:58;;;;;;;9.73;8.40;;;18.60;99.90;;;;;;4953412;28;20039;-50
2023/07/01 09:27:36;;;;;;;9.98;7.90;;;18.60;99.90;;;;;;4953516;28;20049;-51
2023/07/01 09:30:02;;;;;;;8.68;7.70;;;18.60;99.90;;;;;;4952126;28;20035;-51
2023/07/01 09:32:28;;;;;;;7.88;7.18;;;18.50;99.90;;;;;;4954265;28;20399;-51
2023/07/01 09:34:58;;;;;;;9.32;8.30;;;18.60;99.90;;;;;;4953614;28;20062;-50
2023/07/01 09:37:25;;;;;;;9.23;8.27;;;18.60;99.90;;;;;;4952895;28;20091;-51
2023/07/01 09:39:51;;;;;;;8.52;7.47;;;18.80;99.90;;;;;;4952864;28;20534;-53
2023/07/01 09:42:18;;;;;;;8.48;7.47;;;18.80;99.90;;;;;;4935353;29;20079;-50
2023/07/01 09:45:07;;;;;;;10.38;7.82;;;18.70;99.90;;;;;;4946019;28;20455;-53
2023/07/01 09:47:34;;;;;;;9.13;8.30;;;18.80;99.90;;;;;;4933515;28;20095;-50
2023/07/01 09:50:01;;;;;;;11.15;7.75;;;18.70;99.90;;;;;;4953392;28;20036;-47
2023/07/01 09:52:32;;;;;;;9.90;7.97;;;18.90;99.90;;;;;;4953851;28;20057;-50
2023/07/01 09:55:00;;;;;;;7.70;6.90;;;18.70;99.90;;;;;;4958528;28;20620;-52
2023/07/01 09:57:26;;;;;;;8.75;7.65;;;18.90;99.90;;;;;;4954738;28;20039;-46
2023/07/01 09:59:53;;;;;;;8.07;7.28;;;18.80;99.90;;;;;;4937923;28;20043;-49
2023/07/01 10:02:19;;;;;;;8.35;7.53;;;18.90;99.90;;;;;;4954910;28;20039;-49
2023/07/01 10:04:44;;;;;;;9.27;8.13;;;18.90;99.90;;;;;;4954814;28;20078;-46
2023/07/01 10:07:10;;;;;;;8.80;7.65;;;19.10;99.90;;;;;;4954674;28;20051;-49
2023/07/01 10:09:43;;;;;;;8.70;7.75;;;19.10;99.90;;;;;;4954742;28;20502;-52
2023/07/01 10:12:09;;;;;;;8.30;7.50;;;19.20;99.90;;;;;;4953680;28;20044;-50
2023/07/01 10:14:35;;;;;;;8.70;7.85;;;19.10;99.90;;;;;;4961927;28;20167;-51
2023/07/01 10:17:01;;;;;;;9.05;8.13;;;19.00;99.90;;;;;;4973750;28;20074;-51
2023/07/01 10:19:33;;;;;;;8.68;7.70;;;19.10;99.90;;;;;;4973797;28;20133;-48
2023/07/01 10:22:24;;;;;;;7.82;7.03;;;19.20;99.90;;;;;;4973677;28;20121;-52
2023/07/01 10:25:05;;;;;;;7.88;7.07;;;19.20;99.90;;;;;;4973290;28;20557;-48
2023/07/01 10:27:43;;;;;;;7.35;6.65;;;19.30;99.90;;;;;;4973334;28;20109;-49
2023/07/01 10:30:10;;;;;;;7.63;6.38;;;19.10;99.90;;;;;;4938119;29;20116;-49
2023/07/01 10:32:36;;;;;;;7.50;6.68;;;19.10;99.90;;;;;;4953975;28;20467;-52
2023/07/01 10:35:04;;;;;;;8.23;7.00;;;19.10;99.90;;;;;;4953994;28;20033;-50
2023/07/01 10:37:34;;;;;;;7.70;6.65;;;19.20;99.90;;;;;;4954165;28;20043;-49
2023/07/01 10:40:07;;;;;;;6.82;6.03;;;19.10;99.90;;;;;;4954088;28;20039;-52
2023/07/01 10:42:38;;;;;;;6.97;6.28;;;19.20;99.90;;;;;;4936818;29;20038;-51
2023/07/01 10:45:12;;;;;;;7.00;6.25;;;19.00;99.90;;;;;;4953936;28;20626;-49
2023/07/01 10:47:38;;;;;;;7.40;6.60;;;19.00;99.90;;;;;;4954062;28;20045;-49
2023/07/01 10:50:09;;;;;;;7.57;6.53;;;19.00;99.90;;;;;;4953611;28;20039;-50
2023/07/01 10:53:01;;;;;;;7.95;6.55;;;18.90;99.90;;;;;;4953798;28;20051;-50
2023/07/01 10:55:44;;;;;;;7.72;6.82;;;19.10;99.90;;;;;;4953389;28;20487;-49
2023/07/01 10:58:13;;;;;;;7.72;6.68;;;19.00;99.90;;;;;;4953734;28;20035;-52
2023/07/01 11:00:39;;;;;;;8.32;7.28;;;18.80;99.90;;;;;;4952924;28;20443;-51
2023/07/01 11:03:28;;;;;;;7.70;6.65;;;19.00;99.90;;;;;;4952729;28;20050;-50
2023/07/01 11:05:58;;;;;;;7.22;6.15;;;18.80;99.90;;;;;;4953104;28;20039;-49
2023/07/01 11:08:25;;;;;;;7.80;6.18;;;18.90;99.90;;;;;;4956842;28;20167;-47
2023/07/01 11:10:51;;;;;;;6.88;6.15;;;19.10;99.90;;;;;;4953607;29;20491;-52
2023/07/01 11:13:18;;;;;;;7.85;7.05;;;18.80;99.90;;;;;;4953583;28;20031;-52
2023/07/01 11:16:10;;;;;;;7.72;6.93;;;18.90;99.90;;;;;;4953367;28;20042;-49
2023/07/01 11:18:50;;;;;;;6.95;6.05;;;19.20;99.90;;;;;;4953390;28;20043;-48
2023/07/01 11:21:27;;;;;;;7.53;5.40;;;19.60;99.90;;;;;;4953321;28;20055;-48
2023/07/01 11:23:57;;;;;;;6.93;5.38;;;19.70;99.90;;;;;;4935911;29;20118;-50
2023/07/01 11:26:34;;;;;;;6.78;5.82;;;19.80;99.90;;;;;;4953082;28;20039;-52
2023/07/01 11:29:01;;;;;;;7.68;5.60;;;19.70;99.90;;;;;;4953347;28;20070;-49
2023/07/01 11:31:34;;;;;;;4.60;3.25;;;19.60;99.90;;;;;;4953194;28;20050;-50
2023/07/01 11:34:01;;;;;;;4.87;3.13;;;19.40;99.90;;;;;;4937173;28;20046;-50
2023/07/01 11:36:38;;;;;;;4.63;2.90;;;19.50;99.90;;;;;;4972647;28;20361;-50
2023/07/01 11:39:14;;;;;;;6.13;3.80;;;19.40;99.90;;;;;;4959299;28;20039;-50
2023/07/01 11:41:54;;;;;;;7.05;4.43;;;19.40;99.90;;;;;;4953462;28;20483;-51
2023/07/01 11:44:22;;;;;;;6.55;5.38;;;19.30;99.90;;;;;;4953389;28;20035;-50
2023/07/01 11:46:48;;;;;;;7.43;5.60;;;19.30;99.90;;;;;;4952917;28;20043;-49
2023/07/01 11:49:29;;;;;;;7.72;5.97;;;19.20;99.90;;;;;;4953434;28;20042;-47
2023/07/01 11:51:59;;;;;;;7.75;6.00;;;19.10;99.90;;;;;;4953053;28;20040;-49
2023/07/01 11:54:47;;;;;;;8.45;6.03;;;19.30;99.90;;;;;;4970306;28;20086;-47
2023/07/01 11:57:21;;;;;;;8.70;6.38;;;19.40;99.90;;;;;;4972626;28;20034;-49
2023/07/01 11:59:58;;;;;;;8.60;6.72;;;19.50;99.90;;;;;;4972163;28;20050;-48
2023/07/01 12:02:27;;;;;;;7.03;5.30;;;19.30;99.90;;;;;;4937290;28;20047;-48
2023/07/01 12:04:53;;;;;;;6.75;5.00;;;19.40;99.90;;;;;;4952915;28;20095;-49
2023/07/01 12:07:20;;;;;;;7.32;5.20;;;19.30;99.90;;;;;;4952836;28;20070;-51
2023/07/01 12:09:45;;;;;;;8.73;6.03;;;19.30;99.90;;;;;;4953117;28;20027;-52
2023/07/01 12:12:31;;;;;;;7.35;5.97;;;19.40;99.90;;;;;;4953127;28;20040;-48
2023/07/01 12:15:11;;;;;;;9.40;7.53;;;19.40;99.90;;;;;;4939364;28;20047;-52
2023/07/01 12:17:37;;;;;;;10.13;7.43;;;19.40;99.90;;;;;;4952730;28;20134;-51
2023/07/01 12:20:06;;;;;;;11.30;8.43;;;19.60;99.90;;;;;;4952948;28;20353;-50
2023/07/01 12:22:32;;;;;;;12.07;9.40;;;19.40;99.90;;;;;;4966520;28;20038;-50
2023/07/01 12:24:58;;;;;;;11.75;8.88;;;19.60;99.90;;;;;;4971865;28;20520;-48
2023/07/01 12:27:25;;;;;;;11.48;8.77;;;19.60;99.90;;;;;;4970836;28;20041;-48
2023/07/01 12:29:51;;;;;;;11.45;9.52;;;19.50;99.90;;;;;;4972219;28;20066;-48
2023/07/01 12:32:17;;;;;;;10.70;8.88;;;19.70;99.90;;;;;;4936074;29;20086;-51
2023/07/01 12:34:43;;;;;;;13.63;9.38;;;20.00;99.90;;;;;;4952807;28;20065;-53
2023/07/01 12:37:09;;;;;;;11.65;8.35;;;20.10;99.90;;;;;;4955533;28;20131;-50
2023/07/01 12:39:35;;;;;;;10.23;7.70;;;20.60;99.90;;;;;;4961275;28;20115;-46
2023/07/01 12:42:01;;;;;;;9.20;7.47;;;20.80;99.90;;;;;;4958901;28;20683;-50
2023/07/01 12:44:27;;;;;;;8.23;7.13;;;20.90;99.90;;;;;;4975218;28;20051;-48
2023/07/01 12:46:53;;;;;;;8.75;7.00;;;21.00;99.90;;;;;;4966341;28;20087;-48